Time;durP1;ratioP1;P1;durP2;ratioP2;P2;SDS_P1;SDS_P2;PMS_P1;PMS_P2;Temp;Humidity;BMP_temperature;BMP_pressure;BME280_temperature;BME280_humidity;BME280_pressure;Samples;Min_cycle;Max_cycle;Signal;HPM_P1;HPM_P2
2023/07/17 00:02:15;;;;;;;11.55;2.85;;;17.30;77.50;;;;;;5038276;28;20048;-79
2023/07/17 00:04:41;;;;;;;10.55;3.72;;;17.20;77.30;;;;;;5038140;28;20052;-78
2023/07/17 00:07:07;;;;;;;15.27;3.10;;;17.30;76.90;;;;;;5021556;28;20170;-79
2023/07/17 00:09:32;;;;;;;10.48;2.65;;;17.40;76.30;;;;;;5038116;28;20048;-81
2023/07/17 00:11:58;;;;;;;9.48;3.33;;;17.30;76.30;;;;;;5038129;28;20103;-79
2023/07/17 00:14:24;;;;;;;9.05;3.00;;;17.30;76.20;;;;;;5037981;28;20166;-80
2023/07/17 00:16:50;;;;;;;8.90;2.55;;;17.30;76.10;;;;;;5021843;28;20048;-81
2023/07/17 00:19:15;;;;;;;10.70;2.78;;;17.30;76.10;;;;;;5021611;28;20507;-80
2023/07/17 00:21:41;;;;;;;8.52;3.03;;;17.30;76.10;;;;;;5021440;28;20047;-79
2023/07/17 00:24:07;;;;;;;12.18;3.47;;;17.30;76.20;;;;;;5021256;28;20055;-78
2023/07/17 00:26:33;;;;;;;14.95;4.05;;;17.30;76.30;;;;;;5021472;28;20127;-80
2023/07/17 00:29:24;;;;;;;13.90;3.22;;;17.20;76.40;;;;;;5054608;28;20450;-81
2023/07/17 00:31:53;;;;;;;10.98;3.63;;;17.20;76.50;;;;;;5038001;28;20033;-81
2023/07/17 00:34:19;;;;;;;9.27;3.25;;;17.20;76.50;;;;;;5037836;28;20567;-79
2023/07/17 00:36:46;;;;;;;13.70;3.35;;;17.20;76.30;;;;;;5037366;28;20148;-80
2023/07/17 00:39:14;;;;;;;12.13;3.15;;;17.20;76.50;;;;;;5037880;28;20397;-79
2023/07/17 00:41:39;;;;;;;9.60;2.83;;;17.20;76.50;;;;;;5054092;28;20195;-80
2023/07/17 00:44:05;;;;;;;10.70;2.95;;;17.20;76.70;;;;;;5037451;28;20131;-80
2023/07/17 00:46:33;;;;;;;8.45;3.30;;;17.10;76.90;;;;;;5004618;28;20041;-80
2023/07/17 00:49:00;;;;;;;9.93;3.40;;;17.00;77.30;;;;;;5021193;28;20049;-80
2023/07/17 00:51:26;;;;;;;11.43;4.15;;;17.10;77.30;;;;;;5004668;28;20045;-79
2023/07/17 00:53:52;;;;;;;8.68;3.17;;;17.00;77.70;;;;;;5054108;28;20045;-81
2023/07/17 00:56:20;;;;;;;9.27;3.75;;;17.00;78.10;;;;;;5037362;28;20141;-80
2023/07/17 00:58:46;;;;;;;8.55;3.20;;;16.90;79.20;;;;;;5037219;28;20041;-78
2023/07/17 01:01:12;;;;;;;11.18;3.40;;;16.90;79.50;;;;;;5020569;28;20045;-79
2023/07/17 01:03:39;;;;;;;12.55;2.83;;;16.80;79.50;;;;;;5036934;28;20044;-81
2023/07/17 01:06:04;;;;;;;11.15;3.55;;;16.70;79.90;;;;;;5020493;28;20045;-79
2023/07/17 01:08:31;;;;;;;11.23;3.50;;;16.70;80.30;;;;;;5036980;28;20039;-81
2023/07/17 01:10:57;;;;;;;9.75;3.08;;;16.70;80.40;;;;;;5037340;28;20408;-79
2023/07/17 01:13:23;;;;;;;12.30;3.75;;;16.70;80.00;;;;;;5036855;28;20041;-80
2023/07/17 01:15:48;;;;;;;11.90;3.63;;;16.60;80.70;;;;;;5036719;28;20040;-78
2023/07/17 01:18:14;;;;;;;13.13;3.72;;;16.60;80.50;;;;;;5020326;28;20041;-79
2023/07/17 01:20:41;;;;;;;15.35;4.50;;;16.50;81.50;;;;;;5020364;28;20056;-81
2023/07/17 01:23:07;;;;;;;14.10;4.32;;;16.50;82.20;;;;;;5036635;28;20076;-79
2023/07/17 01:25:33;;;;;;;13.43;5.40;;;16.50;81.20;;;;;;5053028;28;20083;-78
2023/07/17 01:27:59;;;;;;;13.57;4.13;;;16.40;81.80;;;;;;5053206;28;20041;-80
2023/07/17 01:30:25;;;;;;;13.38;4.57;;;16.40;82.40;;;;;;5053369;28;20044;-78
2023/07/17 01:32:51;;;;;;;14.80;3.60;;;16.30;82.50;;;;;;5036742;28;20040;-80
2023/07/17 01:35:17;;;;;;;15.48;4.32;;;16.30;82.50;;;;;;5019944;28;20048;-80
2023/07/17 01:37:42;;;;;;;9.82;3.65;;;16.30;81.90;;;;;;5052788;28;20048;-78
2023/07/17 01:40:16;;;;;;;12.68;4.10;;;16.20;82.60;;;;;;5036470;28;20043;-78
2023/07/17 01:42:42;;;;;;;9.30;3.40;;;16.20;82.90;;;;;;5020821;28;20149;-79
2023/07/17 01:45:08;;;;;;;12.65;4.13;;;16.20;83.00;;;;;;5003491;28;20116;-79
2023/07/17 01:47:33;;;;;;;10.73;3.72;;;16.20;82.70;;;;;;5036205;28;20137;-79
2023/07/17 01:50:01;;;;;;;11.95;3.83;;;16.10;83.60;;;;;;5036218;28;20102;-79
2023/07/17 01:52:27;;;;;;;11.52;3.75;;;16.10;83.30;;;;;;5020169;28;20041;-79
2023/07/17 01:54:52;;;;;;;10.85;3.80;;;16.00;83.50;;;;;;5052586;28;20048;-79
2023/07/17 01:57:18;;;;;;;11.05;4.35;;;16.00;83.60;;;;;;5035546;28;20037;-81
2023/07/17 01:59:44;;;;;;;18.10;4.68;;;16.00;83.70;;;;;;5019820;28;20132;-81
2023/07/17 02:02:09;;;;;;;11.52;4.10;;;16.00;83.70;;;;;;5035954;28;20492;-78
2023/07/17 02:04:35;;;;;;;13.18;4.05;;;16.00;83.90;;;;;;5019492;28;20045;-81
2023/07/17 02:07:01;;;;;;;12.63;3.92;;;16.00;84.40;;;;;;5035998;28;20044;-79
2023/07/17 02:09:26;;;;;;;15.05;5.00;;;16.00;83.90;;;;;;5003210;28;20094;-79
2023/07/17 02:11:52;;;;;;;11.40;3.85;;;16.00;83.90;;;;;;5052752;28;20127;-80
2023/07/17 02:14:18;;;;;;;13.88;4.85;;;15.90;84.70;;;;;;5052329;28;20033;-79
2023/07/17 02:16:43;;;;;;;9.52;3.75;;;15.90;84.40;;;;;;5019263;28;20040;-79
2023/07/17 02:19:09;;;;;;;9.80;3.78;;;15.90;84.20;;;;;;5003201;28;20041;-79
2023/07/17 02:21:35;;;;;;;16.05;4.20;;;15.90;84.50;;;;;;5052197;28;20076;-81
2023/07/17 02:24:00;;;;;;;29.70;4.57;;;15.90;84.00;;;;;;5052315;28;20037;-78
2023/07/17 02:26:26;;;;;;;11.77;3.83;;;16.00;85.60;;;;;;5002779;28;20497;-80
2023/07/17 02:28:52;;;;;;;11.13;4.35;;;16.00;85.10;;;;;;5019358;28;20037;-80
2023/07/17 02:31:17;;;;;;;10.23;4.25;;;16.00;85.70;;;;;;5052101;28;20040;-79
2023/07/17 02:33:43;;;;;;;15.75;4.78;;;16.00;85.50;;;;;;5035349;28;20055;-78
2023/07/17 02:36:08;;;;;;;19.55;4.63;;;16.00;85.40;;;;;;5018993;28;20037;-79
2023/07/17 02:38:34;;;;;;;13.25;4.88;;;16.00;85.20;;;;;;5018817;28;20098;-78
2023/07/17 02:41:01;;;;;;;13.93;5.18;;;16.00;85.00;;;;;;5019340;28;20044;-80
2023/07/17 02:43:26;;;;;;;13.00;4.18;;;16.00;85.20;;;;;;5035289;28;20051;-78
2023/07/17 02:45:52;;;;;;;13.35;4.80;;;16.00;85.10;;;;;;5035110;28;20128;-79
2023/07/17 02:48:21;;;;;;;14.32;4.55;;;16.00;85.60;;;;;;5018835;28;20040;-80
2023/07/17 02:50:50;;;;;;;13.85;5.68;;;16.00;85.10;;;;;;5002460;28;20123;-79
2023/07/17 02:53:16;;;;;;;12.80;4.13;;;16.00;85.50;;;;;;5018789;28;20123;-81
2023/07/17 02:55:42;;;;;;;17.77;4.65;;;16.00;85.60;;;;;;5018591;28;20068;-80
2023/07/17 02:58:08;;;;;;;11.95;4.85;;;16.00;85.10;;;;;;5035350;28;20389;-79
2023/07/17 03:00:34;;;;;;;10.50;4.20;;;15.90;85.80;;;;;;5035069;28;20041;-79
2023/07/17 03:03:00;;;;;;;14.38;5.32;;;15.90;85.90;;;;;;5051894;28;20048;-80
2023/07/17 03:05:26;;;;;;;17.80;5.55;;;15.90;85.80;;;;;;5018586;28;20036;-79
2023/07/17 03:07:53;;;;;;;15.50;5.07;;;15.90;85.70;;;;;;5018732;28;20174;-81
2023/07/17 03:10:19;;;;;;;23.23;6.32;;;15.90;86.10;;;;;;5037285;28;20098;-80
2023/07/17 03:12:45;;;;;;;20.13;6.40;;;15.80;86.10;;;;;;5055940;28;20127;-80
2023/07/17 03:15:11;;;;;;;17.35;5.72;;;15.80;86.10;;;;;;5055640;28;20029;-77
2023/07/17 03:17:36;;;;;;;25.50;5.82;;;15.70;86.30;;;;;;5039425;28;20178;-80
2023/07/17 03:20:06;;;;;;;18.50;5.38;;;15.70;86.60;;;;;;5006333;28;20041;-79
2023/07/17 03:22:31;;;;;;;19.98;5.82;;;15.70;86.00;;;;;;5055749;28;20565;-79
2023/07/17 03:24:57;;;;;;;22.77;6.60;;;15.70;86.70;;;;;;5055449;28;20123;-80
2023/07/17 03:27:23;;;;;;;13.98;5.15;;;15.70;86.60;;;;;;5021224;28;20106;-78
2023/07/17 03:29:49;;;;;;;14.95;6.15;;;15.70;86.50;;;;;;5038079;28;20117;-81
2023/07/17 03:32:15;;;;;;;15.15;5.40;;;15.70;86.80;;;;;;5038142;28;20044;-80
2023/07/17 03:34:41;;;;;;;19.45;5.88;;;15.70;86.90;;;;;;5038369;28;20041;-78
2023/07/17 03:37:06;;;;;;;18.63;5.70;;;15.70;87.20;;;;;;5054885;28;20061;-79
2023/07/17 03:39:33;;;;;;;17.50;5.85;;;15.70;87.30;;;;;;5022145;28;20479;-79
2023/07/17 03:41:58;;;;;;;16.63;5.70;;;15.70;87.20;;;;;;5038818;28;20040;-78
2023/07/17 03:44:25;;;;;;;17.08;5.10;;;15.70;87.30;;;;;;5005835;28;20114;-81
2023/07/17 03:46:50;;;;;;;17.08;5.95;;;15.70;86.90;;;;;;5038536;28;20037;-81
2023/07/17 03:49:16;;;;;;;22.40;6.05;;;15.70;87.40;;;;;;5038547;28;20037;-80
2023/07/17 03:51:42;;;;;;;22.85;5.50;;;15.70;87.00;;;;;;5038825;28;20041;-80
2023/07/17 03:54:07;;;;;;;21.08;6.18;;;15.70;88.10;;;;;;5038621;28;20405;-79
2023/07/17 03:56:35;;;;;;;17.67;5.30;;;15.70;88.00;;;;;;5038578;28;20049;-80
2023/07/17 03:59:01;;;;;;;18.65;5.65;;;15.70;88.40;;;;;;5022230;28;20155;-80
2023/07/17 04:01:27;;;;;;;24.15;6.03;;;15.70;87.80;;;;;;5005834;28;20088;-81
2023/07/17 04:03:52;;;;;;;17.48;5.82;;;15.80;87.50;;;;;;5021771;28;20044;-79
2023/07/17 04:06:18;;;;;;;18.80;5.13;;;15.70;87.70;;;;;;5021794;28;20044;-79
2023/07/17 04:08:44;;;;;;;15.57;5.60;;;15.70;88.10;;;;;;5005385;28;20036;-80
2023/07/17 04:11:10;;;;;;;22.48;6.35;;;15.70;88.20;;;;;;5005216;28;20123;-79
2023/07/17 04:13:35;;;;;;;18.73;5.95;;;15.70;88.50;;;;;;5021475;28;20041;-78
2023/07/17 04:16:01;;;;;;;17.85;6.20;;;15.70;88.70;;;;;;5037889;28;20055;-79
2023/07/17 04:18:27;;;;;;;18.48;5.80;;;15.70;88.30;;;;;;5022005;28;20047;-80
2023/07/17 04:20:52;;;;;;;15.32;6.30;;;15.70;88.40;;;;;;5020903;28;20560;-78
2023/07/17 04:23:18;;;;;;;19.98;5.82;;;15.70;88.40;;;;;;5021491;28;20048;-81
2023/07/17 04:25:44;;;;;;;24.73;7.18;;;15.70;88.50;;;;;;5021128;28;20041;-80
2023/07/17 04:28:10;;;;;;;20.33;5.95;;;15.70;88.50;;;;;;5021599;28;20045;-79
2023/07/17 04:30:36;;;;;;;18.85;6.70;;;15.70;88.40;;;;;;5037738;28;20036;-80
2023/07/17 04:33:02;;;;;;;19.05;6.45;;;15.70;88.70;;;;;;5038019;28;20079;-81
2023/07/17 04:35:28;;;;;;;19.35;5.65;;;15.70;88.80;;;;;;5021364;28;20489;-81
2023/07/17 04:37:57;;;;;;;24.73;5.93;;;15.70;88.60;;;;;;5037402;28;20420;-81
2023/07/17 04:40:22;;;;;;;20.60;6.15;;;15.70;88.60;;;;;;5021013;28;20106;-80
2023/07/17 04:42:48;;;;;;;22.05;6.97;;;15.70;88.70;;;;;;5054078;28;20037;-79
2023/07/17 04:45:16;;;;;;;18.55;6.75;;;15.80;88.70;;;;;;5020906;28;20079;-79
2023/07/17 04:47:42;;;;;;;16.25;6.35;;;15.80;88.60;;;;;;5037162;28;20401;-78
2023/07/17 04:50:08;;;;;;;18.15;6.85;;;15.80;88.40;;;;;;5004865;28;20041;-80
2023/07/17 04:52:34;;;;;;;25.13;6.70;;;15.90;88.10;;;;;;5037233;28;20505;-79
2023/07/17 04:54:59;;;;;;;15.82;5.57;;;15.90;88.60;;;;;;5054104;28;20146;-80
2023/07/17 04:57:26;;;;;;;16.20;6.07;;;16.00;88.60;;;;;;5054082;28;20393;-79
2023/07/17 04:59:52;;;;;;;17.10;5.65;;;16.00;88.40;;;;;;5020744;28;20095;-78
2023/07/17 05:02:18;;;;;;;19.45;6.20;;;16.10;88.00;;;;;;5004525;28;20045;-79
2023/07/17 05:04:44;;;;;;;12.45;5.70;;;16.20;88.00;;;;;;5020589;28;20094;-79
2023/07/17 05:07:10;;;;;;;23.60;6.63;;;16.30;87.60;;;;;;5021132;28;20045;-79
2023/07/17 05:09:35;;;;;;;21.08;6.93;;;16.40;87.40;;;;;;5006525;28;20545;-79
2023/07/17 05:12:01;;;;;;;19.48;6.10;;;16.50;87.10;;;;;;5005883;28;20036;-81
2023/07/17 05:14:27;;;;;;;19.67;6.45;;;16.60;86.70;;;;;;5022149;28;20436;-80
2023/07/17 05:16:53;;;;;;;15.48;5.57;;;16.70;86.30;;;;;;5038042;28;20040;-83
2023/07/17 05:19:18;;;;;;;21.45;6.20;;;16.80;86.10;;;;;;5021272;28;20127;-84
2023/07/17 05:21:44;;;;;;;15.10;5.97;;;16.80;85.50;;;;;;5021057;28;20045;-84
2023/07/17 05:24:10;;;;;;;21.00;5.90;;;16.80;85.50;;;;;;5004229;28;20104;-84
2023/07/17 05:26:35;;;;;;;21.45;5.97;;;16.80;85.50;;;;;;5020231;28;20498;-85
2023/07/17 05:29:02;;;;;;;15.23;5.82;;;16.80;85.70;;;;;;5003526;28;20036;-84
2023/07/17 05:31:28;;;;;;;15.57;6.22;;;16.90;85.50;;;;;;5019072;28;20029;-85
2023/07/17 05:33:55;;;;;;;16.83;6.22;;;17.00;85.60;;;;;;4989932;28;20037;-84
2023/07/17 05:36:22;;;;;;;14.07;6.32;;;17.00;85.20;;;;;;5017692;28;20048;-84
2023/07/17 05:38:47;;;;;;;20.33;6.22;;;17.10;84.90;;;;;;5024490;28;20600;-85
2023/07/17 05:41:13;;;;;;;19.95;6.43;;;17.00;85.00;;;;;;4993020;28;20043;-84
2023/07/17 05:43:39;;;;;;;15.27;6.18;;;17.10;85.00;;;;;;5018630;28;20037;-84
2023/07/17 05:46:05;;;;;;;15.45;5.80;;;17.20;85.00;;;;;;5009026;28;20042;-84
2023/07/17 05:48:30;;;;;;;18.92;6.78;;;17.20;85.00;;;;;;5018087;28;20091;-82
2023/07/17 05:50:56;;;;;;;16.75;5.78;;;17.30;85.20;;;;;;4990641;28;20474;-82
2023/07/17 05:53:22;;;;;;;19.38;7.75;;;17.30;85.10;;;;;;5005992;28;20124;-83
2023/07/17 05:55:48;;;;;;;18.45;6.65;;;17.40;84.60;;;;;;4993733;28;20040;-80
2023/07/17 05:58:13;;;;;;;16.20;6.28;;;17.40;85.00;;;;;;5026384;28;20550;-80
2023/07/17 06:00:39;;;;;;;15.38;6.78;;;17.40;85.10;;;;;;5016014;28;20128;-81
2023/07/17 06:03:05;;;;;;;16.88;6.55;;;17.30;85.70;;;;;;5019610;28;20033;-80
2023/07/17 06:05:36;;;;;;;16.17;7.10;;;17.40;85.50;;;;;;5052625;28;20044;-82
2023/07/17 06:08:03;;;;;;;18.45;7.03;;;17.20;86.20;;;;;;5052755;28;20040;-81
2023/07/17 06:10:30;;;;;;;18.10;7.07;;;17.00;86.20;;;;;;5036068;28;20393;-80
2023/07/17 06:12:56;;;;;;;15.82;6.30;;;16.90;86.50;;;;;;5037178;28;20041;-80
2023/07/17 06:15:21;;;;;;;18.80;6.20;;;16.90;86.90;;;;;;5015911;28;20043;-81
2023/07/17 06:17:47;;;;;;;25.08;7.10;;;16.80;87.00;;;;;;5032432;28;20273;-81
2023/07/17 06:20:13;;;;;;;17.85;7.20;;;16.90;86.70;;;;;;5032330;28;20045;-81
2023/07/17 06:22:39;;;;;;;16.13;5.25;;;17.00;87.10;;;;;;5015859;28;20533;-81
2023/07/17 06:25:05;;;;;;;21.17;6.82;;;17.20;86.50;;;;;;4999658;28;20133;-77
2023/07/17 06:27:30;;;;;;;13.43;4.93;;;17.20;86.40;;;;;;5015969;28;20441;-78
2023/07/17 06:29:56;;;;;;;13.40;4.90;;;17.40;84.50;;;;;;5032303;28;20083;-77
2023/07/17 06:32:22;;;;;;;12.75;4.47;;;17.40;83.80;;;;;;5032354;28;20082;-74
2023/07/17 06:34:48;;;;;;;13.88;5.13;;;17.40;83.70;;;;;;5031853;28;20311;-75
2023/07/17 06:37:14;;;;;;;15.02;4.68;;;17.40;83.90;;;;;;4998925;28;20148;-76
2023/07/17 06:39:41;;;;;;;10.02;4.75;;;17.50;83.60;;;;;;5015640;28;20045;-72
2023/07/17 06:42:08;;;;;;;14.05;4.72;;;17.50;83.20;;;;;;4999327;28;20102;-73
2023/07/17 06:44:34;;;;;;;11.77;4.40;;;17.60;83.20;;;;;;5015188;28;20049;-72
2023/07/17 06:47:00;;;;;;;10.02;4.13;;;17.80;82.60;;;;;;5031764;28;20049;-73
2023/07/17 06:49:26;;;;;;;11.80;4.50;;;17.80;81.50;;;;;;5032000;28;20079;-72
2023/07/17 06:51:51;;;;;;;9.63;3.90;;;18.00;80.10;;;;;;5015285;28;20409;-73
2023/07/17 06:54:17;;;;;;;10.43;3.55;;;18.00;80.90;;;;;;5031944;28;20044;-71
2023/07/17 06:56:43;;;;;;;7.75;2.95;;;18.00;81.30;;;;;;5032010;28;20490;-72
2023/07/17 06:59:11;;;;;;;8.35;3.42;;;18.10;79.20;;;;;;5015576;28;20041;-72
2023/07/17 07:01:37;;;;;;;13.43;3.42;;;18.10;78.10;;;;;;5015535;28;20045;-73
2023/07/17 07:04:02;;;;;;;7.78;3.33;;;18.20;77.40;;;;;;5015290;28;20060;-72
2023/07/17 07:06:28;;;;;;;10.00;4.03;;;18.40;77.10;;;;;;5015069;28;20041;-71
2023/07/17 07:08:54;;;;;;;8.65;3.63;;;18.40;77.10;;;;;;5008521;28;20068;-73
2023/07/17 07:11:19;;;;;;;8.50;3.30;;;18.40;74.60;;;;;;5030616;28;20055;-73
2023/07/17 07:13:46;;;;;;;9.55;2.72;;;18.40;73.80;;;;;;5032908;28;20478;-74
2023/07/17 07:16:12;;;;;;;11.18;3.03;;;18.40;73.80;;;;;;5031836;28;20041;-75
2023/07/17 07:18:37;;;;;;;7.55;2.80;;;18.50;73.20;;;;;;5029742;28;20095;-72
2023/07/17 07:21:03;;;;;;;10.52;3.28;;;18.60;73.10;;;;;;5021175;28;20045;-75
2023/07/17 07:23:29;;;;;;;8.40;2.88;;;18.70;72.00;;;;;;5017387;28;20409;-74
2023/07/17 07:25:54;;;;;;;7.32;3.20;;;18.60;72.00;;;;;;5011874;28;20486;-76
2023/07/17 07:28:21;;;;;;;7.75;2.60;;;18.70;71.40;;;;;;5034672;28;20146;-74
2023/07/17 07:30:48;;;;;;;8.98;2.72;;;18.60;71.50;;;;;;5036448;28;20485;-73
2023/07/17 07:33:13;;;;;;;8.63;2.92;;;18.50;71.10;;;;;;5036935;28;20041;-75
2023/07/17 07:35:44;;;;;;;4.57;2.92;;;18.50;70.60;;;;;;5034941;28;20541;-76
2023/07/17 07:38:09;;;;;;;8.40;3.72;;;18.40;71.00;;;;;;5033014;28;20053;-76
2023/07/17 07:40:35;;;;;;;9.23;3.38;;;18.40;71.80;;;;;;4998815;28;20540;-73
2023/07/17 07:43:01;;;;;;;9.52;2.97;;;18.40;73.20;;;;;;5029699;28;20052;-77
2023/07/17 07:45:26;;;;;;;7.88;2.78;;;18.40;72.10;;;;;;5003250;28;20102;-74
2023/07/17 07:47:52;;;;;;;8.48;3.42;;;18.20;70.60;;;;;;5032138;28;20050;-75
2023/07/17 07:50:18;;;;;;;6.15;2.95;;;18.00;71.20;;;;;;5019039;28;20044;-76
2023/07/17 07:52:44;;;;;;;11.88;3.28;;;18.10;71.70;;;;;;5015984;28;20048;-76
2023/07/17 07:55:09;;;;;;;11.02;3.75;;;18.20;72.60;;;;;;5029638;28;20076;-73
2023/07/17 07:57:35;;;;;;;10.02;2.90;;;18.50;73.10;;;;;;5023568;28;20079;-73
2023/07/17 08:00:01;;;;;;;8.05;2.78;;;18.60;72.20;;;;;;5034779;28;20041;-73
2023/07/17 08:02:26;;;;;;;6.18;2.75;;;18.60;70.80;;;;;;5037933;28;20123;-74
2023/07/17 08:04:52;;;;;;;7.70;2.83;;;18.70;68.90;;;;;;5020109;28;20504;-75
2023/07/17 08:07:18;;;;;;;6.97;2.90;;;18.70;68.60;;;;;;5018958;28;20151;-76
2023/07/17 08:09:43;;;;;;;8.25;2.97;;;18.80;68.70;;;;;;5038701;28;20062;-75
2023/07/17 08:12:09;;;;;;;12.30;3.17;;;18.90;69.20;;;;;;5014559;28;20207;-73
2023/07/17 08:14:35;;;;;;;9.60;3.65;;;19.00;69.20;;;;;;5034636;28;20051;-75
2023/07/17 08:17:00;;;;;;;6.93;2.83;;;19.10;69.40;;;;;;5022460;28;20056;-73
2023/07/17 08:19:26;;;;;;;7.45;2.85;;;19.20;68.30;;;;;;5031882;28;20577;-75
2023/07/17 08:21:52;;;;;;;8.70;2.67;;;19.40;68.30;;;;;;5019774;28;20053;-73
2023/07/17 08:24:17;;;;;;;9.35;3.13;;;19.40;67.50;;;;;;5017872;28;20167;-76
2023/07/17 08:26:43;;;;;;;8.20;3.05;;;19.50;67.10;;;;;;5019989;28;20069;-74
2023/07/17 08:29:10;;;;;;;7.75;2.65;;;19.50;66.00;;;;;;5035909;28;20051;-74
2023/07/17 08:31:36;;;;;;;9.30;2.30;;;19.50;66.50;;;;;;5039505;28;20041;-75
2023/07/17 08:34:03;;;;;;;5.38;2.53;;;19.50;65.70;;;;;;5033578;28;20037;-73
2023/07/17 08:36:30;;;;;;;7.25;2.85;;;19.30;65.50;;;;;;5034416;28;20389;-73
2023/07/17 08:38:56;;;;;;;8.35;2.42;;;19.40;65.70;;;;;;5022821;28;20061;-74
2023/07/17 08:41:22;;;;;;;10.75;4.85;;;19.50;66.20;;;;;;5037666;28;20055;-74
2023/07/17 08:43:52;;;;;;;7.20;2.60;;;19.40;65.30;;;;;;5033893;28;20049;-73
2023/07/17 08:46:18;;;;;;;7.53;2.40;;;19.50;65.90;;;;;;5019653;28;20127;-73
2023/07/17 08:48:45;;;;;;;6.30;2.78;;;19.60;66.30;;;;;;5019664;28;20163;-73
2023/07/17 08:51:14;;;;;;;6.03;2.38;;;19.60;66.20;;;;;;5032917;28;20091;-73
2023/07/17 08:53:44;;;;;;;7.50;2.60;;;19.60;66.40;;;;;;5045258;28;20048;-73
2023/07/17 08:56:11;;;;;;;5.50;2.40;;;19.60;65.30;;;;;;5034973;28;20080;-73
2023/07/17 08:58:37;;;;;;;6.85;2.05;;;19.70;64.10;;;;;;5032885;28;20056;-73
2023/07/17 09:01:03;;;;;;;8.95;2.25;;;19.80;63.50;;;;;;5034175;28;20152;-73
2023/07/17 09:03:32;;;;;;;5.57;2.35;;;19.90;63.30;;;;;;5034815;28;20077;-73
2023/07/17 09:06:01;;;;;;;6.50;1.95;;;20.00;62.40;;;;;;5000369;28;20053;-73
2023/07/17 09:08:26;;;;;;;10.48;2.25;;;20.00;63.40;;;;;;5031685;28;20053;-73
2023/07/17 09:11:07;;;;;;;5.25;2.05;;;20.20;63.70;;;;;;5038162;28;20504;-73
2023/07/17 09:13:44;;;;;;;8.15;2.40;;;20.30;62.20;;;;;;5033235;28;20059;-73
2023/07/17 09:16:23;;;;;;;6.78;2.45;;;20.20;61.90;;;;;;5020586;28;20064;-73
2023/07/17 09:18:52;;;;;;;8.05;2.53;;;20.40;62.40;;;;;;5033337;28;20060;-74
2023/07/17 09:21:20;;;;;;;5.80;1.85;;;20.40;62.50;;;;;;5031460;28;20041;-74
2023/07/17 09:23:48;;;;;;;8.25;1.98;;;20.50;59.50;;;;;;5037673;28;20493;-73
2023/07/17 09:26:19;;;;;;;7.90;2.65;;;20.40;59.80;;;;;;5037689;28;20048;-73
2023/07/17 09:28:50;;;;;;;4.90;2.17;;;20.40;60.70;;;;;;5023057;28;20045;-72
2023/07/17 09:31:27;;;;;;;3.85;1.75;;;20.40;61.70;;;;;;5019400;28;20489;-73
2023/07/17 09:33:58;;;;;;;6.93;2.38;;;20.40;60.10;;;;;;5033743;28;20366;-73
2023/07/17 09:36:23;;;;;;;8.63;2.72;;;20.40;60.90;;;;;;5034397;28;20058;-73
2023/07/17 09:38:54;;;;;;;6.60;1.95;;;20.40;62.00;;;;;;5040522;28;20268;-72
2023/07/17 09:41:25;;;;;;;3.97;2.33;;;20.60;61.20;;;;;;5038379;28;20045;-72
2023/07/17 09:44:05;;;;;;;5.75;2.10;;;20.70;59.90;;;;;;5038310;28;20053;-72
2023/07/17 09:46:33;;;;;;;7.18;2.10;;;20.70;59.50;;;;;;5038331;28;20058;-72
2023/07/17 09:48:59;;;;;;;5.78;2.45;;;20.80;60.10;;;;;;5035332;28;20072;-73
2023/07/17 09:51:25;;;;;;;9.10;2.58;;;20.90;60.00;;;;;;5017879;28;20116;-73
2023/07/17 09:53:51;;;;;;;5.38;2.75;;;20.90;58.40;;;;;;5033976;28;20041;-73
2023/07/17 09:56:18;;;;;;;9.80;2.90;;;20.80;57.60;;;;;;5050456;28;20120;-73
2023/07/17 09:58:50;;;;;;;5.03;2.55;;;20.60;58.20;;;;;;5053011;28;20080;-73
2023/07/17 10:01:17;;;;;;;5.90;2.45;;;20.50;58.90;;;;;;5052613;28;20058;-73
2023/07/17 10:03:46;;;;;;;5.63;2.60;;;20.50;58.90;;;;;;5052514;28;20045;-73
2023/07/17 10:06:14;;;;;;;6.72;3.28;;;20.60;58.80;;;;;;5035724;28;20101;-72
2023/07/17 10:08:42;;;;;;;6.20;3.35;;;20.70;58.90;;;;;;5036115;28;20125;-73
2023/07/17 10:11:08;;;;;;;5.40;2.40;;;20.60;59.60;;;;;;5052472;28;20037;-72
2023/07/17 10:13:34;;;;;;;7.93;3.78;;;20.50;58.80;;;;;;5019336;28;20040;-73
2023/07/17 10:16:00;;;;;;;5.28;2.55;;;20.50;60.50;;;;;;5052547;28;20041;-73
2023/07/17 10:18:26;;;;;;;7.00;2.70;;;20.70;60.80;;;;;;5051935;28;20176;-72
2023/07/17 10:20:53;;;;;;;6.47;3.22;;;21.00;60.90;;;;;;5052361;28;20128;-73
2023/07/17 10:23:27;;;;;;;9.32;3.15;;;21.20;60.50;;;;;;5035684;28;20040;-72
2023/07/17 10:26:06;;;;;;;5.82;2.65;;;21.40;60.60;;;;;;5052243;28;20064;-73
2023/07/17 10:28:34;;;;;;;7.68;2.92;;;21.50;59.30;;;;;;5052261;28;20124;-74
2023/07/17 10:31:20;;;;;;;8.15;3.10;;;21.50;58.70;;;;;;5052353;28;20508;-74
2023/07/17 10:33:58;;;;;;;6.93;2.55;;;21.50;59.40;;;;;;5035447;28;20041;-73
2023/07/17 10:36:43;;;;;;;6.85;2.72;;;21.40;59.90;;;;;;5035690;28;20453;-75
2023/07/17 10:39:15;;;;;;;6.43;3.08;;;21.40;59.90;;;;;;5035325;28;20049;-74
2023/07/17 10:41:41;;;;;;;9.88;3.28;;;21.30;59.90;;;;;;5052303;28;20044;-73
2023/07/17 10:44:08;;;;;;;9.20;3.65;;;21.30;60.70;;;;;;5051986;28;20575;-72
2023/07/17 10:46:38;;;;;;;9.05;2.65;;;21.50;61.10;;;;;;5035299;28;20037;-72
2023/07/17 10:49:15;;;;;;;7.25;3.10;;;21.50;60.40;;;;;;5051688;28;20044;-74
2023/07/17 10:51:46;;;;;;;4.93;2.70;;;21.50;60.20;;;;;;5052057;28;20362;-73
2023/07/17 10:54:12;;;;;;;5.80;2.80;;;21.50;59.90;;;;;;5051927;28;20041;-74
2023/07/17 10:56:38;;;;;;;8.05;2.92;;;21.60;59.60;;;;;;5052126;28;20440;-75
2023/07/17 10:59:04;;;;;;;5.90;2.75;;;21.50;58.60;;;;;;5051756;28;20094;-74
2023/07/17 11:01:31;;;;;;;6.65;2.40;;;21.50;58.70;;;;;;5051517;28;20504;-76
2023/07/17 11:03:56;;;;;;;7.13;3.03;;;21.80;59.10;;;;;;5051784;28;20041;-76
2023/07/17 11:06:26;;;;;;;7.05;3.05;;;22.10;59.20;;;;;;5051595;28;20541;-74
2023/07/17 11:08:54;;;;;;;6.45;2.30;;;22.40;60.00;;;;;;5051881;28;20041;-75
2023/07/17 11:11:20;;;;;;;5.25;2.45;;;22.40;57.80;;;;;;5051753;28;20122;-74
2023/07/17 11:13:50;;;;;;;5.78;2.42;;;22.00;58.20;;;;;;5018542;28;20552;-73
2023/07/17 11:16:16;;;;;;;6.90;2.83;;;21.70;58.30;;;;;;5051701;28;20044;-75
2023/07/17 11:18:53;;;;;;;5.65;2.83;;;21.40;59.50;;;;;;5051566;28;20055;-76
2023/07/17 11:21:24;;;;;;;15.27;3.75;;;21.40;60.10;;;;;;5051787;28;20393;-75
2023/07/17 11:23:51;;;;;;;7.18;3.13;;;21.60;60.00;;;;;;5051518;28;20053;-73
2023/07/17 11:26:31;;;;;;;6.05;2.22;;;21.80;59.90;;;;;;5051622;28;20044;-76
2023/07/17 11:28:59;;;;;;;7.80;2.65;;;22.00;58.70;;;;;;5051509;28;20044;-76
2023/07/17 11:31:30;;;;;;;6.53;2.22;;;22.20;58.90;;;;;;5053754;28;20044;-74
2023/07/17 11:33:59;;;;;;;8.73;2.80;;;22.20;58.20;;;;;;5039234;28;20046;-78
2023/07/17 11:36:44;;;;;;;7.05;2.67;;;22.00;57.00;;;;;;5038885;28;20041;-76
2023/07/17 11:39:16;;;;;;;4.55;2.50;;;22.00;57.40;;;;;;5055511;28;20056;-77
2023/07/17 11:41:47;;;;;;;8.57;2.38;;;22.10;56.40;;;;;;5055446;28;20041;-81
2023/07/17 11:44:32;;;;;;;6.97;2.35;;;22.10;56.40;;;;;;5055230;28;20045;-76
2023/07/17 11:47:04;;;;;;;7.18;3.00;;;21.90;57.00;;;;;;5038866;28;20041;-76
2023/07/17 11:49:30;;;;;;;5.45;2.30;;;21.90;56.20;;;;;;5055184;28;20501;-76
2023/07/17 11:51:57;;;;;;;4.43;2.10;;;21.90;54.30;;;;;;5038878;28;20044;-76
2023/07/17 11:54:38;;;;;;;6.15;2.28;;;22.00;53.60;;;;;;5055356;28;20045;-77
2023/07/17 11:57:04;;;;;;;5.85;2.28;;;22.00;52.80;;;;;;5055284;28;20072;-76
2023/07/17 11:59:31;;;;;;;5.07;2.53;;;22.00;53.10;;;;;;5055292;28;20056;-77
2023/07/17 12:01:56;;;;;;;6.07;2.30;;;22.00;52.60;;;;;;5055233;28;20056;-78
2023/07/17 12:04:24;;;;;;;7.10;2.53;;;22.40;52.90;;;;;;5055417;28;20041;-77
2023/07/17 12:06:50;;;;;;;7.32;2.33;;;22.40;50.10;;;;;;5022314;28;20537;-77
2023/07/17 12:09:17;;;;;;;8.70;2.60;;;22.40;50.60;;;;;;5055291;28;20128;-77
2023/07/17 12:11:44;;;;;;;5.60;2.42;;;22.50;52.00;;;;;;5055035;28;20396;-78
2023/07/17 12:14:12;;;;;;;10.50;2.97;;;22.60;52.10;;;;;;5038046;28;20044;-77
2023/07/17 12:16:37;;;;;;;6.00;2.47;;;22.80;52.50;;;;;;5054925;28;20045;-77
2023/07/17 12:19:03;;;;;;;6.38;2.63;;;22.70;52.50;;;;;;5052785;28;20045;-78
2023/07/17 12:21:29;;;;;;;5.32;2.58;;;22.80;51.10;;;;;;5036050;28;20131;-79
2023/07/17 12:23:55;;;;;;;6.35;2.65;;;22.90;50.90;;;;;;5037507;28;20095;-77
2023/07/17 12:26:21;;;;;;;6.25;2.70;;;23.10;51.10;;;;;;5052377;28;20044;-77
2023/07/17 12:28:47;;;;;;;5.57;2.30;;;23.00;51.00;;;;;;5037765;28;20045;-76
2023/07/17 12:31:13;;;;;;;4.68;2.30;;;23.00;52.00;;;;;;5054365;28;20405;-75
2023/07/17 12:33:38;;;;;;;5.68;2.45;;;22.90;51.10;;;;;;5054657;28;20044;-76
2023/07/17 12:36:04;;;;;;;5.63;2.70;;;22.80;50.40;;;;;;5037512;28;20542;-76
2023/07/17 12:38:30;;;;;;;5.32;2.60;;;22.90;51.60;;;;;;5037427;28;20053;-76
2023/07/17 12:40:55;;;;;;;5.15;2.40;;;23.10;52.50;;;;;;5054146;28;20394;-76